createdAt,value
2023-03-28T00:01:13.255Z,4.32
2023-03-28T00:04:16.992Z,5.13
2023-03-28T00:07:21.746Z,4.00
2023-03-28T00:10:23.915Z,4.80
2023-03-28T00:13:27.515Z,4.10
2023-03-28T00:16:45.639Z,4.03
2023-03-28T00:19:53.424Z,4.20
2023-03-28T00:22:54.964Z,5.45
2023-03-28T00:26:04.996Z,4.28
2023-03-28T00:29:11.949Z,5.78
2023-03-28T00:32:13.608Z,4.18
2023-03-28T00:35:15.924Z,4.57
2023-03-28T00:38:19.856Z,5.30
2023-03-28T00:41:43.534Z,4.97
2023-03-28T00:44:47.956Z,5.13
2023-03-28T00:48:06.794Z,4.72
2023-03-28T00:51:19.625Z,4.55
2023-03-28T00:57:44.924Z,5.18
2023-03-28T01:00:47.336Z,5.10
2023-03-28T01:04:13.857Z,5.63
2023-03-28T01:07:16.638Z,5.30
2023-03-28T01:10:19.350Z,5.03
2023-03-28T01:13:26.148Z,4.75
2023-03-28T01:16:42.098Z,5.15
2023-03-28T01:20:13.149Z,8.35
2023-03-28T01:23:39.999Z,5.40
2023-03-28T01:30:20.118Z,6.20
2023-03-28T01:34:15.895Z,5.20
2023-03-28T01:37:36.548Z,5.43
2023-03-28T01:40:48.728Z,6.18
2023-03-28T01:44:17.076Z,5.00
2023-03-28T01:47:37.842Z,5.85
2023-03-28T01:54:41.196Z,4.80
2023-03-28T01:58:04.994Z,4.80
2023-03-28T02:01:58.950Z,5.65
2023-03-28T02:05:08.953Z,4.80
2023-03-28T02:08:14.424Z,5.40
2023-03-28T02:11:35.410Z,6.10
2023-03-28T02:15:02.057Z,5.25
2023-03-28T02:18:29.611Z,5.93
2023-03-28T02:21:58.503Z,4.93
2023-03-28T02:25:18.922Z,5.40
2023-03-28T02:28:32.576Z,5.32
2023-03-28T02:35:31.702Z,5.75
2023-03-28T02:38:47.944Z,5.47
2023-03-28T02:42:24.910Z,6.00
2023-03-28T02:45:47.876Z,5.72
2023-03-28T02:49:12.808Z,5.82
2023-03-28T02:52:51.918Z,5.60
2023-03-28T02:56:04.278Z,5.05
2023-03-28T02:59:39.323Z,5.78
2023-03-28T03:02:43.454Z,5.53
2023-03-28T03:06:01.457Z,5.50
2023-03-28T03:09:04.862Z,5.28
2023-03-28T03:12:07.006Z,6.40
2023-03-28T03:15:10.587Z,7.00
2023-03-28T03:18:36.957Z,5.25
2023-03-28T03:21:39.630Z,5.90
2023-03-28T03:24:54.298Z,6.07
2023-03-28T03:27:56.025Z,5.63
2023-03-28T03:30:58.030Z,6.18
2023-03-28T03:33:59.578Z,7.82
2023-03-28T03:37:12.245Z,6.20
2023-03-28T03:40:14.067Z,5.80
2023-03-28T03:43:26.241Z,5.13
2023-03-28T03:46:30.788Z,5.72
2023-03-28T03:49:41.623Z,6.18
2023-03-28T03:52:43.402Z,6.03
2023-03-28T03:55:45.344Z,6.93
2023-03-28T03:58:48.575Z,5.78
2023-03-28T04:02:02.569Z,6.38
2023-03-28T04:05:17.666Z,6.65
2023-03-28T04:08:37.858Z,6.80
2023-03-28T04:11:41.523Z,6.32
2023-03-28T04:18:15.511Z,6.38
2023-03-28T04:21:44.065Z,7.18
2023-03-28T04:24:48.402Z,7.75
2023-03-28T04:27:55.789Z,5.90
2023-03-28T04:31:00.121Z,6.93
2023-03-28T04:34:20.209Z,6.65
2023-03-28T04:37:37.854Z,6.30
2023-03-28T04:40:46.992Z,7.57
2023-03-28T04:43:56.761Z,7.00
2023-03-28T04:46:59.206Z,6.25
2023-03-28T04:50:01.678Z,6.63
2023-03-28T04:53:10.554Z,5.85
2023-03-28T04:56:20.370Z,6.32
2023-03-28T04:59:21.998Z,6.90
2023-03-28T05:02:27.655Z,7.18
2023-03-28T05:05:36.902Z,8.27
2023-03-28T05:08:46.603Z,5.90
2023-03-28T05:11:49.316Z,5.82
2023-03-28T05:14:51.639Z,7.88
2023-03-28T05:17:58.091Z,7.43
2023-03-28T05:21:06.185Z,7.88
2023-03-28T05:24:16.932Z,6.80
2023-03-28T05:27:18.847Z,6.93
2023-03-28T05:30:24.650Z,6.95
2023-03-28T05:33:32.314Z,6.57
2023-03-28T05:36:43.119Z,7.00
2023-03-28T05:39:54.874Z,6.00
2023-03-28T05:42:59.601Z,7.95
2023-03-28T05:46:01.657Z,6.80
2023-03-28T05:49:16.919Z,6.65
2023-03-28T05:52:20.654Z,5.55
2023-03-28T05:55:22.744Z,6.00
2023-03-28T05:58:25.619Z,6.05
2023-03-28T06:01:33.332Z,5.95
2023-03-28T06:04:43.576Z,6.45
2023-03-28T06:07:47.387Z,6.35
2023-03-28T06:11:02.372Z,5.40
2023-03-28T06:17:11.844Z,5.72
2023-03-28T06:20:24.260Z,7.78
2023-03-28T06:23:29.028Z,7.00
2023-03-28T06:29:53.457Z,7.07
2023-03-28T06:32:55.136Z,8.30
2023-03-28T06:36:02.515Z,7.28
2023-03-28T06:39:07.654Z,7.70
2023-03-28T06:42:09.182Z,7.65
2023-03-28T06:45:21.739Z,8.27
2023-03-28T06:48:36.227Z,10.85
2023-03-28T06:51:58.421Z,9.68
2023-03-28T06:55:06.352Z,9.52
2023-03-28T06:58:08.172Z,8.30
2023-03-28T07:01:27.782Z,8.95
2023-03-28T07:04:39.883Z,9.30
2023-03-28T07:07:41.409Z,7.10
2023-03-28T07:10:43.793Z,6.95
2023-03-28T07:13:50.701Z,7.07
2023-03-28T07:16:54.104Z,7.75
2023-03-28T07:19:57.308Z,7.07
2023-03-28T07:23:00.872Z,7.25
2023-03-28T07:26:04.287Z,8.57
2023-03-28T07:29:08.849Z,7.00
2023-03-28T07:32:11.188Z,6.57
2023-03-28T07:35:12.744Z,6.28
2023-03-28T07:38:22.137Z,7.10
2023-03-28T07:41:26.581Z,6.68
2023-03-28T07:44:28.368Z,6.03
2023-03-28T07:47:30.560Z,8.13
2023-03-28T07:50:32.273Z,9.60
2023-03-28T07:53:37.733Z,7.35
2023-03-28T07:56:41.723Z,6.00
2023-03-28T07:59:53.307Z,7.28
2023-03-28T08:02:57.633Z,5.50
2023-03-28T08:06:17.062Z,6.97
2023-03-28T08:09:36.652Z,6.57
2023-03-28T08:12:55.961Z,5.60
2023-03-28T08:15:57.936Z,6.63
2023-03-28T08:19:10.510Z,5.80
2023-03-28T08:22:38.039Z,4.90
2023-03-28T08:26:06.071Z,5.20
2023-03-28T08:29:17.668Z,6.85
2023-03-28T08:32:21.437Z,6.22
2023-03-28T08:35:29.570Z,6.13
2023-03-28T08:38:38.062Z,4.88
2023-03-28T08:42:17.246Z,6.07
2023-03-28T08:45:21.586Z,6.85
2023-03-28T08:48:39.697Z,5.20
2023-03-28T08:51:47.540Z,6.93
2023-03-28T08:55:11.087Z,6.13
2023-03-28T08:58:28.225Z,5.80
2023-03-28T09:01:32.884Z,5.93
2023-03-28T09:04:36.182Z,5.85
2023-03-28T09:08:01.792Z,5.00
2023-03-28T09:11:25.384Z,7.95
2023-03-28T09:14:52.427Z,5.63
2023-03-28T09:21:24.296Z,5.55
2023-03-28T09:24:41.664Z,6.72
2023-03-28T09:27:59.737Z,6.63
2023-03-28T09:31:05.474Z,4.85
2023-03-28T09:34:07.246Z,5.25
2023-03-28T09:37:40.272Z,5.07
2023-03-28T09:40:47.710Z,7.03
2023-03-28T09:43:59.227Z,5.60
2023-03-28T09:47:19.025Z,6.30
2023-03-28T09:53:46.582Z,6.32
2023-03-28T09:56:48.733Z,6.95
2023-03-28T10:00:21.146Z,4.72
2023-03-28T10:03:39.002Z,5.38
2023-03-28T10:06:44.686Z,4.30
2023-03-28T10:09:54.745Z,5.45
2023-03-28T10:13:11.646Z,5.20
2023-03-28T10:20:21.573Z,6.85
2023-03-28T10:23:34.132Z,5.20
2023-03-28T10:26:47.086Z,7.30
2023-03-28T10:29:48.737Z,6.63
2023-03-28T10:36:50.311Z,4.93
2023-03-28T10:40:24.621Z,4.47
2023-03-28T10:43:49.705Z,5.95
2023-03-28T10:47:16.542Z,5.78
2023-03-28T10:50:31.004Z,6.20
2023-03-28T10:53:52.021Z,5.25
2023-03-28T10:57:03.758Z,5.85
2023-03-28T11:00:23.577Z,4.55
2023-03-28T11:04:05.547Z,4.63
2023-03-28T11:07:39.056Z,5.15
2023-03-28T11:11:33.474Z,4.90
2023-03-28T11:14:41.943Z,5.35
2023-03-28T11:18:21.259Z,5.03
2023-03-28T11:21:33.964Z,5.22
2023-03-28T11:24:43.046Z,5.28
2023-03-28T11:28:46.547Z,5.45
2023-03-28T11:39:59.909Z,4.90
2023-03-28T11:43:17.706Z,4.95
2023-03-28T11:46:40.630Z,6.28
2023-03-28T11:49:56.740Z,5.07
2023-03-28T11:53:32.209Z,5.40
2023-03-28T11:56:41.183Z,5.10
2023-03-28T12:00:42.259Z,5.45
2023-03-28T12:04:16.906Z,5.32
2023-03-28T12:07:25.208Z,5.03
2023-03-28T12:10:50.526Z,5.78
2023-03-28T12:14:19.758Z,5.57
2023-03-28T12:17:45.293Z,5.93
2023-03-28T12:20:52.636Z,5.07
2023-03-28T12:24:34.109Z,4.55
2023-03-28T12:28:18.854Z,5.65
2023-03-28T12:31:56.508Z,5.05
2023-03-28T12:35:31.412Z,5.18
2023-03-28T12:38:55.748Z,6.22
2023-03-28T12:42:10.738Z,4.82
2023-03-28T12:45:41.931Z,4.72
2023-03-28T12:48:51.522Z,5.55
2023-03-28T12:52:07.086Z,5.00
2023-03-28T12:55:38.702Z,4.13
2023-03-28T12:58:42.437Z,4.70
2023-03-28T13:02:11.535Z,5.15
2023-03-28T13:06:03.239Z,5.43
2023-03-28T13:09:28.569Z,5.40
2023-03-28T13:13:04.306Z,4.25
2023-03-28T13:16:15.792Z,4.25
2023-03-28T13:19:19.453Z,4.78
2023-03-28T13:22:42.563Z,4.65
2023-03-28T13:25:58.986Z,4.97
2023-03-28T13:29:01.292Z,4.40
2023-03-28T13:32:06.861Z,4.60
2023-03-28T13:35:43.906Z,4.10
2023-03-28T13:38:48.748Z,4.78
2023-03-28T13:41:52.027Z,5.05
2023-03-28T13:44:57.524Z,3.88
2023-03-28T13:48:12.794Z,4.60
2023-03-28T13:51:26.496Z,4.50
2023-03-28T13:54:28.974Z,5.00
2023-03-28T13:57:31.639Z,4.65
2023-03-28T14:00:35.620Z,3.85
2023-03-28T14:03:49.837Z,4.60
2023-03-28T14:06:54.933Z,6.03
2023-03-28T14:09:57.563Z,4.43
2023-03-28T14:16:36.471Z,4.68
2023-03-28T14:19:42.243Z,3.85
2023-03-28T14:22:59.798Z,6.45
2023-03-28T14:26:07.199Z,4.97
2023-03-28T14:32:37.815Z,3.88
2023-03-28T14:36:00.555Z,4.38
2023-03-28T14:39:13.385Z,4.43
2023-03-28T14:42:21.050Z,3.97
2023-03-28T14:45:27.188Z,4.10
2023-03-28T14:48:29.440Z,4.40
2023-03-28T14:51:53.524Z,4.57
2023-03-28T14:55:05.409Z,3.28
2023-03-28T14:58:09.087Z,3.70
2023-03-28T15:01:23.175Z,4.70
2023-03-28T15:04:26.623Z,5.60
2023-03-28T15:07:33.975Z,3.90
2023-03-28T15:10:38.824Z,4.35
2023-03-28T15:13:52.191Z,5.00
2023-03-28T15:16:55.347Z,4.93
2023-03-28T15:23:28.921Z,3.72
2023-03-28T15:26:38.157Z,3.85
2023-03-28T15:29:40.070Z,4.65
2023-03-28T15:32:45.112Z,3.53
2023-03-28T15:35:47.187Z,4.80
2023-03-28T15:38:50.521Z,4.05
2023-03-28T15:42:01.366Z,4.20
2023-03-28T15:45:30.046Z,6.20
2023-03-28T15:49:01.946Z,4.10
2023-03-28T15:52:09.330Z,5.70
2023-03-28T15:55:22.617Z,5.57
2023-03-28T15:58:24.276Z,4.45
2023-03-28T16:01:31.838Z,5.90
2023-03-28T16:04:33.451Z,4.65
2023-03-28T16:07:50.823Z,4.60
2023-03-28T16:10:52.503Z,5.32
2023-03-28T16:14:20.522Z,4.97
2023-03-28T16:17:44.687Z,5.40
2023-03-28T16:21:11.597Z,4.15
2023-03-28T16:24:13.453Z,5.10
2023-03-28T16:27:15.514Z,5.30
2023-03-28T16:30:28.726Z,4.88
2023-03-28T16:33:30.641Z,5.63
2023-03-28T16:36:35.282Z,4.75
2023-03-28T16:39:47.356Z,5.85
2023-03-28T16:42:48.984Z,5.05
2023-03-28T16:45:50.765Z,5.53
2023-03-28T16:52:16.992Z,6.18
2023-03-28T16:58:46.700Z,7.22
2023-03-28T17:01:53.496Z,5.07
2023-03-28T17:04:55.030Z,4.88
2023-03-28T17:08:05.950Z,5.00
2023-03-28T17:11:09.984Z,4.68
2023-03-28T17:14:17.701Z,4.57
2023-03-28T17:17:20.086Z,7.20
2023-03-28T17:20:21.741Z,6.80
2023-03-28T17:23:23.328Z,9.93
2023-03-28T17:26:27.963Z,5.40
2023-03-28T17:29:31.002Z,6.88
2023-03-28T17:32:32.765Z,4.85
2023-03-28T17:38:52.185Z,5.22
2023-03-28T17:41:54.529Z,4.10
2023-03-28T17:44:57.291Z,4.00
2023-03-28T17:47:59.136Z,4.65
2023-03-28T17:51:01.029Z,4.55
2023-03-28T17:54:04.812Z,4.65
2023-03-28T17:57:07.986Z,5.95
2023-03-28T18:00:14.314Z,6.63
2023-03-28T18:03:24.307Z,7.32
2023-03-28T18:06:51.958Z,4.90
2023-03-28T18:10:03.186Z,5.57
2023-03-28T18:13:07.868Z,4.60
2023-03-28T18:16:12.770Z,5.05
2023-03-28T18:19:18.278Z,4.45
2023-03-28T18:22:27.014Z,4.93
2023-03-28T18:25:32.314Z,6.57
2023-03-28T18:28:37.733Z,6.07
2023-03-28T18:31:47.639Z,5.35
2023-03-28T18:38:23.108Z,5.32
2023-03-28T18:41:30.476Z,5.18
2023-03-28T18:44:36.514Z,4.65
2023-03-28T18:47:41.376Z,6.80
2023-03-28T18:50:45.370Z,5.60
2023-03-28T18:53:50.068Z,7.40
2023-03-28T18:56:51.718Z,6.18
2023-03-28T18:59:59.374Z,5.80
2023-03-28T19:03:02.111Z,6.50
2023-03-28T19:06:08.682Z,5.95
2023-03-28T19:09:10.809Z,8.48
2023-03-28T19:12:18.452Z,5.72
2023-03-28T19:15:20.251Z,5.22
2023-03-28T19:18:26.323Z,4.88
2023-03-28T19:21:30.421Z,4.55
2023-03-28T19:24:32.569Z,4.93
2023-03-28T19:27:36.691Z,10.63
2023-03-28T19:30:48.301Z,6.85
2023-03-28T19:37:14.177Z,8.80
2023-03-28T19:40:19.643Z,6.30
2023-03-28T19:43:29.472Z,6.82
2023-03-28T19:46:34.658Z,9.55
2023-03-28T19:49:50.092Z,9.40
2023-03-28T19:52:53.811Z,11.15
2023-03-28T19:55:59.829Z,9.15
2023-03-28T19:59:01.754Z,11.50
2023-03-28T20:02:03.518Z,9.32
2023-03-28T20:05:06.211Z,9.00
2023-03-28T20:08:14.599Z,8.23
2023-03-28T20:11:16.920Z,6.70
2023-03-28T20:14:21.650Z,8.38
2023-03-28T20:17:27.211Z,7.20
2023-03-28T20:20:28.757Z,6.13
2023-03-28T20:23:33.835Z,6.95
2023-03-28T20:26:53.957Z,6.38
2023-03-28T20:29:55.805Z,9.00
2023-03-28T20:33:07.501Z,5.82
2023-03-28T20:36:16.518Z,5.25
2023-03-28T20:39:18.103Z,6.30
2023-03-28T20:42:21.780Z,5.07
2023-03-28T20:45:29.414Z,5.10
2023-03-28T20:48:50.397Z,4.75
2023-03-28T20:51:54.747Z,4.53
2023-03-28T20:54:57.250Z,4.80
2023-03-28T20:58:01.017Z,4.95
2023-03-28T21:01:04.593Z,5.57
2023-03-28T21:04:09.305Z,5.22
2023-03-28T21:07:11.242Z,4.70
2023-03-28T21:10:16.528Z,5.97
2023-03-28T21:13:22.879Z,5.40
2023-03-28T21:19:30.262Z,5.30
2023-03-28T21:22:50.128Z,6.13
2023-03-28T21:25:52.851Z,5.43
2023-03-28T21:28:54.641Z,5.05
2023-03-28T21:31:56.472Z,4.80
2023-03-28T21:35:15.320Z,5.53
2023-03-28T21:38:17.050Z,5.55
2023-03-28T21:41:18.703Z,6.60
2023-03-28T21:44:20.391Z,4.72
2023-03-28T21:47:21.969Z,5.28
2023-03-28T21:50:30.500Z,7.15
2023-03-28T21:53:36.742Z,4.88
2023-03-28T21:56:40.052Z,5.18
2023-03-28T22:06:15.505Z,6.88
2023-03-28T22:09:19.607Z,5.03
2023-03-28T22:12:22.839Z,4.60
2023-03-28T22:15:26.126Z,4.63
2023-03-28T22:18:28.261Z,5.93
2023-03-28T22:21:30.377Z,4.50
2023-03-28T22:24:31.928Z,4.13
2023-03-28T22:27:37.501Z,4.05
2023-03-28T22:30:40.120Z,5.03
2023-03-28T22:33:41.951Z,4.03
2023-03-28T22:36:43.984Z,4.60
2023-03-28T22:43:10.342Z,4.53
2023-03-28T22:46:20.025Z,4.18
2023-03-28T22:49:24.634Z,4.82
2023-03-28T22:52:26.195Z,4.70
2023-03-28T22:55:28.515Z,4.68
2023-03-28T22:58:33.798Z,4.97
2023-03-28T23:01:38.558Z,5.38
2023-03-28T23:04:40.978Z,4.97
2023-03-28T23:07:45.528Z,4.90
2023-03-28T23:10:47.883Z,5.90
2023-03-28T23:13:49.427Z,5.00
2023-03-28T23:16:51.001Z,4.15
2023-03-28T23:19:52.932Z,4.63
2023-03-28T23:22:56.013Z,4.43
2023-03-28T23:29:17.067Z,4.35
2023-03-28T23:32:18.617Z,4.78
2023-03-28T23:35:24.165Z,3.97
2023-03-28T23:38:25.651Z,4.18
2023-03-28T23:41:27.966Z,4.05
2023-03-28T23:44:30.732Z,4.32
2023-03-28T23:47:39.778Z,4.47
2023-03-28T23:50:43.820Z,4.05
2023-03-28T23:53:50.433Z,5.40
2023-03-28T23:59:57.254Z,3.90
